createdAt,value
2019-01-05T00:02:11.234Z,94.28
2019-01-05T00:04:43.184Z,94.16
2019-01-05T00:07:27.876Z,94.33
2019-01-05T00:10:02.815Z,94.30
2019-01-05T00:12:35.211Z,94.10
2019-01-05T00:15:07.440Z,94.16
2019-01-05T00:17:39.871Z,94.25
2019-01-05T00:20:24.362Z,94.25
2019-01-05T00:23:10.403Z,94.26
2019-01-05T00:25:56.232Z,94.35
2019-01-05T00:28:27.815Z,94.61
2019-01-05T00:30:57.386Z,94.58
2019-01-05T00:33:27.056Z,94.60
2019-01-05T00:35:59.486Z,94.66
2019-01-05T00:38:32.181Z,94.61
2019-01-05T00:41:10.861Z,94.66
2019-01-05T00:43:40.517Z,94.83
2019-01-05T00:46:21.929Z,94.67
2019-01-05T00:49:07.158Z,94.70
2019-01-05T00:51:40.675Z,94.66
2019-01-05T00:54:27.971Z,94.62
2019-01-05T00:57:07.107Z,94.87
2019-01-05T00:59:39.408Z,94.97
2019-01-05T01:02:27.088Z,94.97
2019-01-05T01:05:08.749Z,94.93
2019-01-05T01:07:40.711Z,94.92
2019-01-05T01:10:10.146Z,94.84
2019-01-05T01:12:54.368Z,95.05
2019-01-05T01:15:40.219Z,95.02
2019-01-05T01:18:12.530Z,95.00
2019-01-05T01:20:42.039Z,94.86
2019-01-05T01:23:29.584Z,94.99
2019-01-05T01:26:01.507Z,95.05
2019-01-05T01:28:47.191Z,95.01
2019-01-05T01:31:19.507Z,95.24
2019-01-05T01:33:49.519Z,95.11
2019-01-05T01:36:27.852Z,94.92
2019-01-05T01:38:58.763Z,94.84
2019-01-05T01:41:45.555Z,94.67
2019-01-05T01:44:23.608Z,94.68
2019-01-05T01:46:54.069Z,94.60
2019-01-05T01:49:42.072Z,94.43
2019-01-05T01:52:17.150Z,94.63
2019-01-05T01:55:02.846Z,94.79
2019-01-05T01:57:35.746Z,94.58
2019-01-05T02:00:21.486Z,94.26
2019-01-05T02:02:56.571Z,94.13
2019-01-05T02:05:33.300Z,94.38
2019-01-05T02:08:19.554Z,93.89
2019-01-05T02:10:52.123Z,94.02
2019-01-05T02:13:38.080Z,94.17
2019-01-05T02:16:14.784Z,94.26
2019-01-05T02:18:48.489Z,94.32
2019-01-05T02:21:22.115Z,94.54
2019-01-05T02:24:09.627Z,94.68
2019-01-05T02:27:01.876Z,94.66
2019-01-05T02:29:47.663Z,94.69
2019-01-05T02:32:45.463Z,94.70
2019-01-05T02:35:49.402Z,94.79
2019-01-05T02:38:44.639Z,94.87
2019-01-05T02:41:30.379Z,94.95
2019-01-05T02:44:20.310Z,94.97
2019-01-05T02:47:03.213Z,94.91
2019-01-05T02:49:39.723Z,94.91
2019-01-05T02:52:34.260Z,94.95
2019-01-05T02:55:22.974Z,94.76
2019-01-05T02:58:16.008Z,94.68
2019-01-05T03:01:06.235Z,94.62
2019-01-05T03:03:51.374Z,94.67
2019-01-05T03:06:37.185Z,94.72
2019-01-05T03:09:38.511Z,94.96
2019-01-05T03:12:27.267Z,94.96
2019-01-05T03:15:06.855Z,95.08
2019-01-05T03:17:55.112Z,95.19
2019-01-05T03:20:37.958Z,95.17
2019-01-05T03:23:23.923Z,95.23
2019-01-05T03:26:29.936Z,95.16
2019-01-05T03:29:19.355Z,95.17
2019-01-05T03:31:52.709Z,95.29
2019-01-05T03:34:41.552Z,95.40
2019-01-05T03:37:18.054Z,95.38
2019-01-05T03:40:21.094Z,95.42
2019-01-05T03:43:14.514Z,95.45
2019-01-05T03:46:13.963Z,95.34
2019-01-05T03:49:01.365Z,95.47
2019-01-05T03:51:41.401Z,95.54
2019-01-05T03:54:20.981Z,95.73
2019-01-05T03:57:16.115Z,95.69
2019-01-05T04:00:12.043Z,95.67
2019-01-05T04:03:07.864Z,95.57
2019-01-05T04:05:44.811Z,95.57
2019-01-05T04:08:48.677Z,95.44
2019-01-05T04:11:37.264Z,95.39
2019-01-05T04:14:30.443Z,95.40
2019-01-05T04:17:25.153Z,95.49
2019-01-05T04:20:07.704Z,95.41
2019-01-05T04:22:44.317Z,95.45
2019-01-05T04:25:37.384Z,95.48
2019-01-05T04:28:32.588Z,95.55
2019-01-05T04:31:31.792Z,95.59
2019-01-05T04:34:31.362Z,95.57
2019-01-05T04:37:20.128Z,95.63
2019-01-05T04:40:06.223Z,95.70
2019-01-05T04:42:56.767Z,95.71
2019-01-05T04:45:51.715Z,95.64
2019-01-05T04:48:31.531Z,95.66
2019-01-05T04:51:35.320Z,95.61
2019-01-05T04:54:15.220Z,95.69
2019-01-05T04:57:10.056Z,95.62
2019-01-05T04:59:40.851Z,95.71
2019-01-05T05:02:32.474Z,95.62
2019-01-05T05:05:12.383Z,95.63
2019-01-05T05:08:08.880Z,95.58
2019-01-05T05:10:57.560Z,95.52
2019-01-05T05:13:28.366Z,95.51
2019-01-05T05:16:11.164Z,95.57
2019-01-05T05:18:58.554Z,95.50
2019-01-05T05:21:32.193Z,95.49
2019-01-05T05:24:05.752Z,95.49
2019-01-05T05:26:39.353Z,95.64
2019-01-05T05:29:37.484Z,95.68
2019-01-05T05:32:14.311Z,95.73
2019-01-05T05:35:03.173Z,95.75
2019-01-05T05:37:42.913Z,95.65
2019-01-05T05:40:22.816Z,95.83
2019-01-05T05:43:08.828Z,96.28
2019-01-05T05:46:00.950Z,96.20
2019-01-05T05:48:55.793Z,96.19
2019-01-05T05:51:35.052Z,96.13
2019-01-05T05:54:33.476Z,96.14
2019-01-05T05:57:13.216Z,96.44
2019-01-05T06:00:00.743Z,96.31
2019-01-05T06:02:46.759Z,96.31
2019-01-05T06:05:26.178Z,96.16
2019-01-05T06:08:27.459Z,96.41
2019-01-05T06:11:14.813Z,96.29
2019-01-05T06:14:11.321Z,96.28
2019-01-05T06:16:57.624Z,96.25
2019-01-05T06:19:31.402Z,96.28
2019-01-05T06:22:28.055Z,96.21
2019-01-05T06:25:10.816Z,96.33
2019-01-05T06:27:48.635Z,96.31
2019-01-05T06:30:25.086Z,96.30
2019-01-05T06:33:27.628Z,96.23
2019-01-05T06:36:23.912Z,96.16
2019-01-05T06:39:17.500Z,96.03
2019-01-05T06:42:03.246Z,96.11
2019-01-05T06:44:46.080Z,96.09
2019-01-05T06:47:29.204Z,95.98
2019-01-05T06:50:16.343Z,95.89
2019-01-05T06:53:05.284Z,95.88
2019-01-05T06:55:55.166Z,95.79
2019-01-05T06:58:40.649Z,95.71
2019-01-05T07:01:32.931Z,95.56
2019-01-05T07:04:18.702Z,95.63
2019-01-05T07:07:04.443Z,95.66
2019-01-05T07:10:11.896Z,95.45
2019-01-05T07:13:02.210Z,95.46
2019-01-05T07:15:33.087Z,95.43
2019-01-05T07:18:32.629Z,95.15
2019-01-05T07:21:22.730Z,95.26
2019-01-05T07:24:13.607Z,95.30
2019-01-05T07:27:10.247Z,95.06
2019-01-05T07:29:57.523Z,95.11
2019-01-05T07:32:46.701Z,95.17
2019-01-05T07:35:48.862Z,95.07
2019-01-05T07:38:36.065Z,94.94
2019-01-05T07:41:18.539Z,95.15
2019-01-05T07:44:21.187Z,94.88
2019-01-05T07:47:13.292Z,94.96
2019-01-05T07:50:12.879Z,94.99
2019-01-05T07:52:52.703Z,94.89
2019-01-05T07:55:49.616Z,94.75
2019-01-05T07:58:35.279Z,94.74
2019-01-05T08:01:09.076Z,94.72
2019-01-05T08:03:59.261Z,94.62
2019-01-05T08:06:53.156Z,94.64
2019-01-05T08:09:41.724Z,94.74
2019-01-05T08:12:35.091Z,94.69
2019-01-05T08:15:24.059Z,95.25
2019-01-05T08:18:14.721Z,95.32
2019-01-05T08:21:07.733Z,95.43
2019-01-05T08:24:02.548Z,95.57
2019-01-05T08:26:48.490Z,95.64
2019-01-05T08:29:44.708Z,95.47
2019-01-05T08:32:47.430Z,95.57
2019-01-05T08:35:24.279Z,95.42
2019-01-05T08:38:23.069Z,95.47
2019-01-05T08:41:12.329Z,95.29
2019-01-05T08:44:01.429Z,95.42
2019-01-05T08:47:01.011Z,95.36
2019-01-05T08:49:46.663Z,95.49
2019-01-05T08:52:19.922Z,95.55
2019-01-05T08:55:05.195Z,95.56
2019-01-05T08:57:44.979Z,95.28
2019-01-05T09:00:44.635Z,95.33
2019-01-05T09:03:33.497Z,95.47
2019-01-05T09:06:23.114Z,95.44
2019-01-05T09:08:57.537Z,95.79
2019-01-05T09:11:55.299Z,95.49
2019-01-05T09:14:48.799Z,95.61
2019-01-05T09:17:42.152Z,95.52
2019-01-05T09:20:21.364Z,95.43
2019-01-05T09:23:13.723Z,95.57
2019-01-05T09:26:04.059Z,95.81
2019-01-05T09:28:34.985Z,95.74
2019-01-05T09:31:37.148Z,96.03
2019-01-05T09:34:30.083Z,96.35
2019-01-05T09:37:03.754Z,96.05
2019-01-05T09:39:46.908Z,95.76
2019-01-05T09:42:49.299Z,95.88
2019-01-05T09:45:20.120Z,96.02
2019-01-05T09:48:02.769Z,95.74
2019-01-05T09:50:48.512Z,95.59
2019-01-05T09:53:35.646Z,95.78
2019-01-05T09:56:21.214Z,95.37
2019-01-05T09:59:11.342Z,94.88
2019-01-05T10:01:51.202Z,94.76
2019-01-05T10:04:54.936Z,94.96
2019-01-05T10:07:34.615Z,94.75
2019-01-05T10:10:27.805Z,94.61
2019-01-05T10:13:31.505Z,94.61
2019-01-05T10:16:22.207Z,94.50
2019-01-05T10:19:18.652Z,94.41
2019-01-05T10:22:09.832Z,94.53
2019-01-05T10:24:46.310Z,94.33
2019-01-05T10:27:17.262Z,94.50
2019-01-05T10:30:17.067Z,94.08
2019-01-05T10:33:04.174Z,94.04
2019-01-05T10:35:58.982Z,94.50
2019-01-05T10:38:38.674Z,94.52
2019-01-05T10:41:26.080Z,94.84
2019-01-05T10:44:15.272Z,94.38
2019-01-05T10:46:57.843Z,94.59
2019-01-05T10:58:24.630Z,94.37
2019-01-05T11:04:38.397Z,94.13
2019-01-05T11:12:55.765Z,93.67
2019-01-05T11:18:56.029Z,93.56
2019-01-05T11:22:02.268Z,93.14
2019-01-05T11:25:08.438Z,92.80
2019-01-05T11:28:14.641Z,92.97
2019-01-05T11:31:20.809Z,93.13
2019-01-05T11:34:26.985Z,92.65
2019-01-05T11:37:33.198Z,92.55
2019-01-05T11:40:39.364Z,92.61
2019-01-05T11:43:45.540Z,92.46
2019-01-05T11:49:46.524Z,92.42
2019-01-05T11:58:54.359Z,92.23
2019-01-05T12:02:00.541Z,91.82
2019-01-05T12:05:06.865Z,92.18
2019-01-05T12:08:13.049Z,92.57
2019-01-05T12:11:19.560Z,92.42
2019-01-05T12:14:08.044Z,92.25
2019-01-05T12:26:10.071Z,91.88
2019-01-05T12:29:16.458Z,91.43
2019-01-05T12:32:22.947Z,91.80
2019-01-05T12:38:36.717Z,91.49
2019-01-05T12:41:42.879Z,91.31
2019-01-05T12:44:49.022Z,90.95
2019-01-05T12:47:55.212Z,91.14
2019-01-05T12:54:08.788Z,91.05
2019-01-05T12:57:14.946Z,91.33
2019-01-05T13:00:21.159Z,91.33
2019-01-05T13:06:34.944Z,91.62
2019-01-05T13:09:41.122Z,91.69
2019-01-05T13:15:41.044Z,91.16
2019-01-05T13:18:47.291Z,90.59
2019-01-05T13:24:29.919Z,90.77
2019-01-05T13:27:33.311Z,89.97
2019-01-05T13:30:26.129Z,89.89
2019-01-05T13:33:32.321Z,90.18
2019-01-05T13:36:38.425Z,90.20
2019-01-05T13:39:26.800Z,90.55
2019-01-05T13:42:15.322Z,90.82
2019-01-05T13:51:09.492Z,90.97
2019-01-05T14:03:18.922Z,90.63
2019-01-05T14:05:57.232Z,90.53
2019-01-05T14:08:53.295Z,90.24
2019-01-05T14:11:28.810Z,89.98
2019-01-05T14:14:14.416Z,90.07
2019-01-05T14:16:52.799Z,89.90
2019-01-05T14:19:27.886Z,90.00
2019-01-05T14:21:57.249Z,89.99
2019-01-05T14:24:42.696Z,89.90
2019-01-05T14:27:17.637Z,89.68
2019-01-05T14:30:05.082Z,89.70
2019-01-05T14:32:34.449Z,89.90
2019-01-05T14:35:12.994Z,90.09
2019-01-05T14:37:48.365Z,90.32
2019-01-05T14:40:23.450Z,90.63
2019-01-05T14:43:01.908Z,91.05
2019-01-05T14:45:49.860Z,91.24
2019-01-05T14:48:25.376Z,91.50
2019-01-05T14:51:11.319Z,91.52
2019-01-05T14:53:56.878Z,91.53
2019-01-05T14:56:42.806Z,91.53
2019-01-05T14:59:12.108Z,91.45
2019-01-05T15:01:44.123Z,91.26
2019-01-05T15:04:31.939Z,91.32
2019-01-05T15:07:17.361Z,91.60
2019-01-05T15:09:52.721Z,91.64
2019-01-05T15:12:31.092Z,91.59
2019-01-05T15:15:06.422Z,91.85
2019-01-05T15:17:52.442Z,91.84
2019-01-05T15:20:26.077Z,91.95
2019-01-05T15:23:13.891Z,91.92
2019-01-05T15:25:58.208Z,91.59
2019-01-05T15:28:36.571Z,91.81
2019-01-05T15:31:15.341Z,91.74
2019-01-05T15:34:01.248Z,91.56
2019-01-05T15:36:30.739Z,91.43
2019-01-05T15:39:02.861Z,91.02
2019-01-05T15:41:49.225Z,91.01
2019-01-05T15:44:18.853Z,90.57
2019-01-05T15:47:04.640Z,90.48
2019-01-05T15:49:52.085Z,90.28
2019-01-05T15:52:37.555Z,90.22
2019-01-05T15:55:15.890Z,90.15
2019-01-05T15:57:45.259Z,90.11
2019-01-05T16:00:33.138Z,90.18
2019-01-05T16:03:07.966Z,90.05
2019-01-05T16:05:37.324Z,90.17
2019-01-05T16:08:06.747Z,89.99
2019-01-05T16:10:36.110Z,89.95
2019-01-05T16:13:05.510Z,89.92
2019-01-05T16:15:40.740Z,89.89
2019-01-05T16:18:22.463Z,89.79
2019-01-05T16:20:54.627Z,89.75
2019-01-05T16:23:41.928Z,89.84
2019-01-05T16:26:16.675Z,89.77
2019-01-05T16:28:46.005Z,89.87
2019-01-05T16:31:24.195Z,89.83
2019-01-05T16:33:53.608Z,89.73
2019-01-05T16:36:39.225Z,89.68
2019-01-05T16:39:14.728Z,89.62
2019-01-05T16:41:44.126Z,90.04
2019-01-05T16:44:25.738Z,90.03
2019-01-05T16:47:03.955Z,89.99
2019-01-05T16:49:48.221Z,90.00
2019-01-05T16:52:33.907Z,89.83
2019-01-05T16:55:11.929Z,89.80
2019-01-05T16:57:41.437Z,89.86
2019-01-05T17:00:13.818Z,89.78
2019-01-05T17:02:45.664Z,89.87
2019-01-05T17:05:17.691Z,89.92
2019-01-05T17:07:52.883Z,90.17
2019-01-05T17:10:38.543Z,90.16
2019-01-05T17:13:24.173Z,90.31
2019-01-05T17:15:56.253Z,90.18
2019-01-05T17:18:37.636Z,90.24
2019-01-05T17:21:25.293Z,90.01
2019-01-05T17:24:00.267Z,89.97
2019-01-05T17:26:42.085Z,89.73
2019-01-05T17:29:17.304Z,89.86
2019-01-05T17:32:03.136Z,89.59
2019-01-05T17:34:42.071Z,91.29
2019-01-05T17:37:20.531Z,89.39
2019-01-05T17:39:49.939Z,88.72
2019-01-05T17:42:36.045Z,88.51
2019-01-05T17:45:11.331Z,87.74
2019-01-05T17:47:40.790Z,88.34
2019-01-05T17:50:16.778Z,87.24
2019-01-05T17:52:46.304Z,88.26
2019-01-05T17:55:24.452Z,86.33
2019-01-05T17:57:56.760Z,86.42
2019-01-05T18:00:42.598Z,86.56
2019-01-05T18:03:27.227Z,86.03
2019-01-05T18:06:05.623Z,86.45
2019-01-05T18:08:37.784Z,85.91
2019-01-05T18:11:23.623Z,86.24
2019-01-05T18:13:55.785Z,85.75
2019-01-05T18:16:25.147Z,86.30
2019-01-05T18:19:12.617Z,87.12
2019-01-05T18:21:48.044Z,86.85
2019-01-05T18:24:20.384Z,85.82
2019-01-05T18:26:49.970Z,86.26
2019-01-05T18:29:35.340Z,86.08
2019-01-05T18:32:21.013Z,86.43
2019-01-05T18:35:06.695Z,86.08
2019-01-05T18:37:51.263Z,86.16
2019-01-05T18:40:20.742Z,86.42
2019-01-05T18:42:50.253Z,86.20
2019-01-05T18:45:28.712Z,86.94
2019-01-05T18:49:19.975Z,88.13
2019-01-05T18:52:06.074Z,88.06
2019-01-05T18:54:36.303Z,89.06
2019-01-05T18:57:09.345Z,88.57
2019-01-05T18:59:39.533Z,88.57
2019-01-05T19:02:25.958Z,89.83
2019-01-05T19:04:58.891Z,89.80
2019-01-05T19:07:45.027Z,89.35
2019-01-05T19:10:21.451Z,89.58
2019-01-05T19:12:54.384Z,89.73
2019-01-05T19:15:33.724Z,89.56
2019-01-05T19:18:20.190Z,89.52
2019-01-05T19:20:59.683Z,89.29
2019-01-05T19:23:38.956Z,88.89
2019-01-05T19:26:14.893Z,88.90
2019-01-05T19:28:51.049Z,88.90
2019-01-05T19:31:21.150Z,88.88
2019-01-05T19:34:06.202Z,89.01
2019-01-05T19:36:38.937Z,89.04
2019-01-05T19:39:25.796Z,89.46
2019-01-05T19:42:12.070Z,89.91
2019-01-05T19:44:58.367Z,90.06
2019-01-05T19:47:28.656Z,90.06
2019-01-05T19:50:14.892Z,89.97
2019-01-05T19:52:59.785Z,89.90
2019-01-05T19:55:30.379Z,89.74
2019-01-05T19:58:21.721Z,89.74
2019-01-05T20:00:51.936Z,90.08
2019-01-05T20:03:25.104Z,90.19
2019-01-05T20:06:04.211Z,90.42
2019-01-05T20:08:51.144Z,90.60
2019-01-05T20:11:21.379Z,90.84
2019-01-05T20:14:07.894Z,90.63
2019-01-05T20:16:46.600Z,90.90
2019-01-05T20:19:32.909Z,89.94
2019-01-05T20:22:03.032Z,89.29
2019-01-05T20:24:49.105Z,88.97
2019-01-05T20:27:21.994Z,88.97
2019-01-05T20:30:08.534Z,89.61
2019-01-05T20:32:38.950Z,89.69
2019-01-05T20:35:12.066Z,89.90
2019-01-05T20:37:42.146Z,89.96
2019-01-05T20:40:24.440Z,89.87
2019-01-05T20:43:00.432Z,90.07
2019-01-05T20:45:48.673Z,90.14
2019-01-05T20:48:34.768Z,90.35
2019-01-05T20:51:10.405Z,90.48
2019-01-05T20:53:56.362Z,90.73
2019-01-05T20:56:43.134Z,90.94
2019-01-05T20:59:22.020Z,90.69
2019-01-05T21:02:08.321Z,91.18
2019-01-05T21:04:54.807Z,91.18
2019-01-05T21:07:27.726Z,91.59
2019-01-05T21:10:00.581Z,91.52
2019-01-05T21:12:33.413Z,91.58
2019-01-05T21:15:04.295Z,91.50
2019-01-05T21:17:46.748Z,91.69
2019-01-05T21:20:33.025Z,91.82
2019-01-05T21:23:05.909Z,91.82
2019-01-05T21:25:54.329Z,91.68
2019-01-05T21:28:29.904Z,91.62
2019-01-05T21:31:08.649Z,91.98
2019-01-05T21:33:38.748Z,91.98
2019-01-05T21:36:25.245Z,91.91
2019-01-05T21:38:55.718Z,91.78
2019-01-05T21:41:41.976Z,91.36
2019-01-05T21:44:25.622Z,91.05
2019-01-05T21:46:58.772Z,90.82
2019-01-05T21:49:28.961Z,90.72
2019-01-05T21:52:15.621Z,90.72
2019-01-05T21:54:48.550Z,90.44
2019-01-05T21:57:33.955Z,90.16
2019-01-05T22:00:04.025Z,90.09
2019-01-05T22:02:50.623Z,89.59
2019-01-05T22:05:25.080Z,89.59
2019-01-05T22:08:13.258Z,89.44
2019-01-05T22:10:59.754Z,89.10
2019-01-05T22:13:29.864Z,89.10
2019-01-05T22:16:16.522Z,89.28
2019-01-05T22:19:03.214Z,89.37
2019-01-05T22:21:48.452Z,89.64
2019-01-05T22:24:21.659Z,89.99
2019-01-05T22:27:03.886Z,89.99
2019-01-05T22:29:34.095Z,89.70
2019-01-05T22:32:07.506Z,89.78
2019-01-05T22:34:46.615Z,89.91
2019-01-05T22:37:26.058Z,90.02
2019-01-05T22:40:11.553Z,90.27
2019-01-05T22:42:53.674Z,90.20
2019-01-05T22:45:23.932Z,90.18
2019-01-05T22:48:08.835Z,90.49
2019-01-05T22:50:47.840Z,90.49
2019-01-05T22:53:33.852Z,90.48
2019-01-05T22:56:15.954Z,90.37
2019-01-05T22:58:58.137Z,90.48
2019-01-05T23:01:43.694Z,89.78
2019-01-05T23:04:19.559Z,89.60
2019-01-05T23:06:50.171Z,89.48
2019-01-05T23:09:20.228Z,89.36
2019-01-05T23:11:56.473Z,89.70
2019-01-05T23:14:42.683Z,89.70
2019-01-05T23:17:12.941Z,89.64
2019-01-05T23:19:55.421Z,89.64
2019-01-05T23:22:37.258Z,89.56
2019-01-05T23:25:08.299Z,89.61
2019-01-05T23:27:38.551Z,89.57
2019-01-05T23:30:09.226Z,89.57
2019-01-05T23:32:39.388Z,90.30
2019-01-05T23:35:09.550Z,90.65
2019-01-05T23:37:51.653Z,90.92
2019-01-05T23:40:37.834Z,91.37
2019-01-05T23:43:10.611Z,91.37
2019-01-05T23:45:49.600Z,90.99
2019-01-05T23:48:37.852Z,91.87
2019-01-05T23:51:09.244Z,91.87
2019-01-05T23:53:55.773Z,91.92
2019-01-05T23:56:25.885Z,92.05
2019-01-05T23:58:55.986Z,92.10
